Eships Agamid — ZDHS9 — position and weather

sailwx.info

Track history (hours):
 
Tides and Currents Weather Stations Pressure Air Temp Water Temp Dewpoint Dewpoint Depression Visibility Wind Speed Wind Dir Waves Ship Positions

Eships Agamid

Last reported at 2015-Mar-30 16:33 UTC. Time now 2015-Mar-30 17:31 UTC.
Position N 47°44' W 003°21'.

Length 128 m; draft 6 m.

Type: Tanker. MMSI: 236355000.

Date/timePositionNaut miles runAvg speedWind from/ knotsBaromVisibWave heightAir tempDewpointWater temp
2015-Mar-30 16:33N 47°44' W 003°21'0 0.0
2015-Mar-30 14:27N 47°44' W 003°21'0 0.0
2015-Mar-30 13:33N 47°44' W 003°21'0 0.0
2015-Mar-30 12:33N 47°44' W 003°21'0 0.0
2015-Mar-30 11:33N 47°44' W 003°21'0 0.0
2015-Mar-30 10:33N 47°44' W 003°21'0 0.0
2015-Mar-30 09:33N 47°44' W 003°21'0 0.0
2015-Mar-30 08:33N 47°44' W 003°21'0 0.5
2015-Mar-30 07:33N 47°43' W 003°22'4 3.9
2015-Mar-30 06:32N 47°40' W 003°25'0 0.0
2015-Mar-30 05:32N 47°40' W 003°25'0 0.0
2015-Mar-30 04:32N 47°40' W 003°25'0 0.0
2015-Mar-30 03:32N 47°40' W 003°25'0 0.0
2015-Mar-30 02:32N 47°40' W 003°25'0 0.0
2015-Mar-30 01:32N 47°40' W 003°25'0 0.0
2015-Mar-30 00:32N 47°40' W 003°25'0 0.0
2015-Mar-29 23:32N 47°40' W 003°25'0 0.1
2015-Mar-29 22:32N 47°40' W 003°25'8 8.1
2015-Mar-29 21:33N 47°40' W 003°37'63 7.8
2015-Mar-29 13:33N 48°14' W 004°55'8 8.5
2015-Mar-29 12:33N 48°17' W 004°44'1010.2
2015-Mar-29 11:33N 48°21' W 004°29'2 2.3
2015-Mar-29 10:33N 48°23' W 004°27'0 0.0
2015-Mar-29 09:33N 48°23' W 004°27'0 0.0
2015-Mar-29 08:33N 48°23' W 004°27'0 0.0
2015-Mar-29 07:33N 48°23' W 004°27'0 0.0
2015-Mar-29 06:33N 48°23' W 004°27'0 0.0
2015-Mar-29 05:33N 48°23' W 004°27'0 0.0
2015-Mar-29 04:33N 48°23' W 004°27'0 0.0
2015-Mar-29 03:27N 48°23' W 004°27'0 0.0
2015-Mar-29 02:33N 48°23' W 004°27'0 0.0
2015-Mar-29 01:33N 48°23' W 004°27'0 0.0
2015-Mar-29 00:33N 48°23' W 004°27'0 0.0
2015-Mar-28 23:33N 48°23' W 004°27'0 0.0
2015-Mar-28 22:33N 48°23' W 004°27'0 0.0
2015-Mar-28 21:33N 48°23' W 004°27'0 0.0
2015-Mar-28 20:33N 48°23' W 004°27'0 0.0
2015-Mar-28 19:33N 48°23' W 004°27'0 0.0
2015-Mar-28 18:33N 48°23' W 004°27'0 0.4
2015-Mar-28 17:33N 48°23' W 004°27'10 9.9
2015-Mar-28 16:33N 48°18' W 004°41'1313.0
2015-Mar-28 15:33N 48°12' W 004°58'17 8.2
2015-Mar-28 13:25N 47°55' W 005°05'10 9.8
2015-Mar-28 12:21N 47°50' W 004°52'  
2015-Mar-24 17:33N 47°40' W 003°33'9 8.4
2015-Mar-24 16:31N 47°44' W 003°21'0 0.0
2015-Mar-24 15:31N 47°44' W 003°21'0 0.0
2015-Mar-24 14:33N 47°44' W 003°21'0 0.0
2015-Mar-24 13:33N 47°44' W 003°21'0 0.0
2015-Mar-24 12:33N 47°44' W 003°21'0 0.0
2015-Mar-24 11:33N 47°44' W 003°21'0 0.0
2015-Mar-24 10:33N 47°44' W 003°21'0 0.0
2015-Mar-24 09:33N 47°44' W 003°21'0 0.0
2015-Mar-24 08:33N 47°44' W 003°21'0 0.0
2015-Mar-24 07:33N 47°44' W 003°21'0 0.0
2015-Mar-24 06:33N 47°44' W 003°21'0 0.0
2015-Mar-24 05:33N 47°44' W 003°21'0 0.0
2015-Mar-24 04:33N 47°44' W 003°21'0 0.0
2015-Mar-24 03:33N 47°44' W 003°21'0 0.0
2015-Mar-24 02:33N 47°44' W 003°21'0 0.0
2015-Mar-24 01:33N 47°44' W 003°21'0 0.0
2015-Mar-24 00:33N 47°44' W 003°21'0 0.0
2015-Mar-23 23:33N 47°44' W 003°21'0 0.0
2015-Mar-23 22:33N 47°44' W 003°21'0 0.0
2015-Mar-23 21:33N 47°44' W 003°21'0 0.0
2015-Mar-23 20:33N 47°44' W 003°21'0 0.0
2015-Mar-23 19:33N 47°44' W 003°21'0 0.0
2015-Mar-23 18:33N 47°44' W 003°21'0 0.0
2015-Mar-23 17:33N 47°44' W 003°21'3 3.5
2015-Mar-23 16:33N 47°41' W 003°24'2 1.6
2015-Mar-23 15:33N 47°40' W 003°25'0 0.0
2015-Mar-23 14:33N 47°40' W 003°25'0 0.3
2015-Mar-23 13:33N 47°40' W 003°25'36 8.6
2015-Mar-23 09:25N 47°06' W 003°10'1113.1
2015-Mar-23 08:33N 47°00' W 002°55'1313.4
2015-Mar-23 07:33N 47°02' W 002°36'1212.3
2015-Mar-23 06:33N 47°08' W 002°21'2 0.1
2015-Mar-21 15:33N 47°10' W 002°18'6 0.9
2015-Mar-21 09:26N 47°07' W 002°25'0 0.0
2015-Mar-21 05:20N 47°07' W 002°25'0 0.0
2015-Mar-20 23:08N 47°07' W 002°25'  
Track history (hours):
 
Tides and Currents Weather Stations Pressure Air Temp Water Temp Dewpoint Dewpoint Depression Visibility Wind Speed Wind Dir Waves Ship Positions

Eships Agamid

Last reported at 2015-Mar-30 16:33 UTC. Time now 2015-Mar-30 17:31 UTC.
Position N 47°44' W 003°21'.

Length 128 m; draft 6 m.

Type: Tanker. MMSI: 236355000.

Date/timePositionNaut miles runAvg speedWind from/ knotsBaromVisibWave heightAir tempDewpointWater temp
2015-Mar-30 16:33N 47°44' W 003°21'0 0.0
2015-Mar-30 14:27N 47°44' W 003°21'0 0.0
2015-Mar-30 13:33N 47°44' W 003°21'0 0.0
2015-Mar-30 12:33N 47°44' W 003°21'0 0.0
2015-Mar-30 11:33N 47°44' W 003°21'0 0.0
2015-Mar-30 10:33N 47°44' W 003°21'0 0.0
2015-Mar-30 09:33N 47°44' W 003°21'0 0.0
2015-Mar-30 08:33N 47°44' W 003°21'0 0.5
2015-Mar-30 07:33N 47°43' W 003°22'4 3.9
2015-Mar-30 06:32N 47°40' W 003°25'0 0.0
2015-Mar-30 05:32N 47°40' W 003°25'0 0.0
2015-Mar-30 04:32N 47°40' W 003°25'0 0.0
2015-Mar-30 03:32N 47°40' W 003°25'0 0.0
2015-Mar-30 02:32N 47°40' W 003°25'0 0.0
2015-Mar-30 01:32N 47°40' W 003°25'0 0.0
2015-Mar-30 00:32N 47°40' W 003°25'0 0.0
2015-Mar-29 23:32N 47°40' W 003°25'0 0.1
2015-Mar-29 22:32N 47°40' W 003°25'8 8.1
2015-Mar-29 21:33N 47°40' W 003°37'63 7.8
2015-Mar-29 13:33N 48°14' W 004°55'8 8.5
2015-Mar-29 12:33N 48°17' W 004°44'1010.2
2015-Mar-29 11:33N 48°21' W 004°29'2 2.3
2015-Mar-29 10:33N 48°23' W 004°27'0 0.0
2015-Mar-29 09:33N 48°23' W 004°27'0 0.0
2015-Mar-29 08:33N 48°23' W 004°27'0 0.0
2015-Mar-29 07:33N 48°23' W 004°27'0 0.0
2015-Mar-29 06:33N 48°23' W 004°27'0 0.0
2015-Mar-29 05:33N 48°23' W 004°27'0 0.0
2015-Mar-29 04:33N 48°23' W 004°27'0 0.0
2015-Mar-29 03:27N 48°23' W 004°27'0 0.0
2015-Mar-29 02:33N 48°23' W 004°27'0 0.0
2015-Mar-29 01:33N 48°23' W 004°27'0 0.0
2015-Mar-29 00:33N 48°23' W 004°27'0 0.0
2015-Mar-28 23:33N 48°23' W 004°27'0 0.0
2015-Mar-28 22:33N 48°23' W 004°27'0 0.0
2015-Mar-28 21:33N 48°23' W 004°27'0 0.0
2015-Mar-28 20:33N 48°23' W 004°27'0 0.0
2015-Mar-28 19:33N 48°23' W 004°27'0 0.0
2015-Mar-28 18:33N 48°23' W 004°27'0 0.4
2015-Mar-28 17:33N 48°23' W 004°27'10 9.9
2015-Mar-28 16:33N 48°18' W 004°41'1313.0
2015-Mar-28 15:33N 48°12' W 004°58'17 8.2
2015-Mar-28 13:25N 47°55' W 005°05'10 9.8
2015-Mar-28 12:21N 47°50' W 004°52'  
2015-Mar-24 17:33N 47°40' W 003°33'9 8.4
2015-Mar-24 16:31N 47°44' W 003°21'0 0.0
2015-Mar-24 15:31N 47°44' W 003°21'0 0.0
2015-Mar-24 14:33N 47°44' W 003°21'0 0.0
2015-Mar-24 13:33N 47°44' W 003°21'0 0.0
2015-Mar-24 12:33N 47°44' W 003°21'0 0.0
2015-Mar-24 11:33N 47°44' W 003°21'0 0.0
2015-Mar-24 10:33N 47°44' W 003°21'0 0.0
2015-Mar-24 09:33N 47°44' W 003°21'0 0.0
2015-Mar-24 08:33N 47°44' W 003°21'0 0.0
2015-Mar-24 07:33N 47°44' W 003°21'0 0.0
2015-Mar-24 06:33N 47°44' W 003°21'0 0.0
2015-Mar-24 05:33N 47°44' W 003°21'0 0.0
2015-Mar-24 04:33N 47°44' W 003°21'0 0.0
2015-Mar-24 03:33N 47°44' W 003°21'0 0.0
2015-Mar-24 02:33N 47°44' W 003°21'0 0.0
2015-Mar-24 01:33N 47°44' W 003°21'0 0.0
2015-Mar-24 00:33N 47°44' W 003°21'0 0.0
2015-Mar-23 23:33N 47°44' W 003°21'0 0.0
2015-Mar-23 22:33N 47°44' W 003°21'0 0.0
2015-Mar-23 21:33N 47°44' W 003°21'0 0.0
2015-Mar-23 20:33N 47°44' W 003°21'0 0.0
2015-Mar-23 19:33N 47°44' W 003°21'0 0.0
2015-Mar-23 18:33N 47°44' W 003°21'0 0.0
2015-Mar-23 17:33N 47°44' W 003°21'3 3.5
2015-Mar-23 16:33N 47°41' W 003°24'2 1.6
2015-Mar-23 15:33N 47°40' W 003°25'0 0.0
2015-Mar-23 14:33N 47°40' W 003°25'0 0.3
2015-Mar-23 13:33N 47°40' W 003°25'36 8.6
2015-Mar-23 09:25N 47°06' W 003°10'1113.1
2015-Mar-23 08:33N 47°00' W 002°55'1313.4
2015-Mar-23 07:33N 47°02' W 002°36'1212.3
2015-Mar-23 06:33N 47°08' W 002°21'2 0.1
2015-Mar-21 15:33N 47°10' W 002°18'6 0.9
2015-Mar-21 09:26N 47°07' W 002°25'0 0.0
2015-Mar-21 05:20N 47°07' W 002°25'0 0.0
2015-Mar-20 23:08N 47°07' W 002°25'  

Dump ship's entire track history